Aérodrome :







RETROUVEZ-NOUS SUR...

 
LOGIN :

S'inscrire | Disclaimer

   EN    FR    IT 

 









Légende :    VFR   VFR Marginal   IFR   IFR Intensif   IFR Très Intensif
Visi : 
Plafond : 
>= 8 km
>= 3000ft
5 à 8 km
1000 à 3000 ft
1500m à 5 km
500 à 1000 ft
800 à 1500m
200 à 500 ft
< 800m
< 200 ft
Symboles :   Orages  Brouillard  Fortes neiges  Fortes précipitations  Vent > 20 kt






- Altitude de l'aérodrome : 141 ft
- Code IATA : YQI


CYQI - Yarmouth

DERNIER METAR :
  • 201900Z 30019KT 12SM -SHSN BKN027 M07/M16 A3028 RMK SC7 CVCTV CLD EMBD SLP256

METARs EXPIRÉS :
  • 201800Z 31019G24KT 12SM -SHSN BKN030 M08/M16 A3028 RMK SC7 CVCTV CLD EMBD SLP257
  • 201700Z 31021G29KT 12SM -SHSN BKN029 M08/M15 A3031 RMK SC7 CVCTV CLD EMBD SLP267
  • 201600Z 32017G27KT 12SM -SHSN FEW016 BKN028 M08/M15 A3033 RMK SC1SC6 CVCTV CLD EMBD SLP273

TAF TAF CYQI
Valide du 20 à 18h jusqu'au 21 à 06h UTC


201738Z 2018/2106 31015G30KT P6SM BKN030
TEMPO 2018/2106 4SM -SHSN BKN020
BECMG 2104/2106 34012G22KT RMK NXT FCST BY 210000Z



MET'MAP, la Météo Aéronautique d'un coup d'oeil ! - Copyright ORBIFLY Décembre 2007 - Disclaimer

ORBIFLY MET'MAP TEAM :

Programmation & Développement : Alexandra Zaïnal
Sur une idée originale de : Baudouin d'Aumeries
Assistance à la programmation : Marc-Olivier Méhu
Soutien technique & logistique : Manuel Goepfert

Contact : metmap@orbifly.com




SOURCES & CREDITS :

   NOAA